Terminal Aerodrome Forecast
Issued by NWS Charleston, SC

Home | Current Version | Previous Version | Text Only | Print | Product List | Glossary On
Versions: 1 2 3 4 5 6 7 8 9 10 11 12 13 14 15 16 17 18 19 20 21 22 23 24 25 26 27 28 29 30
000
FTUS42 KCHS 011100 CCA
TAFSAV
TAF COR
KSAV 011149Z 0112/0212 VRB03KT 1/2SM FG OVC002
      TEMPO 0112/0114 4SM BR BKN005
     FM011400 VRB05KT P6SM SCT025 BKN040
     FM011800 08008KT P6SM VCTS SCT025CB BKN140
     FM012300 12006KT P6SM SCT025 BKN150
     FM020600 VRB03KT P6SM VCSH SCT012 BKN035=

USA.gov is the U.S. government's official web portal to all federal, state and local government web resources and services.